sensor_id;sensor_type;location;lat;lon;timestamp;pressure;altitude;pressure_sealevel;temperature;humidity
5777;BME280;2914;42.668;23.346;2023-05-03T00:00:33;94834.39;;;13.06;51.22
5777;BME280;2914;42.668;23.346;2023-05-03T00:03:02;94848.91;;;13.02;51.29
5777;BME280;2914;42.668;23.346;2023-05-03T00:05:33;94844.70;;;12.96;51.34
5777;BME280;2914;42.668;23.346;2023-05-03T00:08:02;94849.84;;;12.97;50.71
5777;BME280;2914;42.668;23.346;2023-05-03T00:10:31;94848.81;;;12.80;50.98
5777;BME280;2914;42.668;23.346;2023-05-03T00:13:00;94856.95;;;12.83;51.01
5777;BME280;2914;42.668;23.346;2023-05-03T00:15:30;94856.95;;;12.83;50.98
5777;BME280;2914;42.668;23.346;2023-05-03T00:17:59;94847.23;;;12.69;51.19
5777;BME280;2914;42.668;23.346;2023-05-03T00:20:28;94846.09;;;12.58;51.20
5777;BME280;2914;42.668;23.346;2023-05-03T00:22:57;94837.73;;;12.49;51.45
5777;BME280;2914;42.668;23.346;2023-05-03T00:25:26;94840.13;;;12.56;51.28
5777;BME280;2914;42.668;23.346;2023-05-03T00:27:55;94835.19;;;12.57;50.99
5777;BME280;2914;42.668;23.346;2023-05-03T00:30:25;94846.64;;;12.48;51.06
5777;BME280;2914;42.668;23.346;2023-05-03T00:32:54;94832.56;;;12.47;51.17
5777;BME280;2914;42.668;23.346;2023-05-03T00:35:23;94840.47;;;12.57;51.10
5777;BME280;2914;42.668;23.346;2023-05-03T00:37:54;94832.04;;;12.44;51.33
5777;BME280;2914;42.668;23.346;2023-05-03T00:40:23;94848.05;;;12.28;51.85
5777;BME280;2914;42.668;23.346;2023-05-03T00:42:52;94851.67;;;12.27;52.05
5777;BME280;2914;42.668;23.346;2023-05-03T00:45:21;94820.13;;;12.30;51.96
5777;BME280;2914;42.668;23.346;2023-05-03T00:47:50;94840.80;;;12.30;51.94
5777;BME280;2914;42.668;23.346;2023-05-03T00:50:20;94843.39;;;12.40;51.47
5777;BME280;2914;42.668;23.346;2023-05-03T00:52:49;94845.67;;;12.25;51.97
5777;BME280;2914;42.668;23.346;2023-05-03T00:55:19;94849.33;;;12.24;51.83
5777;BME280;2914;42.668;23.346;2023-05-03T00:57:48;94827.41;;;12.32;51.49
5777;BME280;2914;42.668;23.346;2023-05-03T01:00:18;94838.75;;;12.14;51.80
5777;BME280;2914;42.668;23.346;2023-05-03T01:02:48;94846.06;;;12.16;51.43
5777;BME280;2914;42.668;23.346;2023-05-03T01:05:18;94846.63;;;12.10;51.73
5777;BME280;2914;42.668;23.346;2023-05-03T01:07:52;94842.66;;;12.10;51.87
5777;BME280;2914;42.668;23.346;2023-05-03T01:13:05;94833.87;;;12.19;51.56
5777;BME280;2914;42.668;23.346;2023-05-03T01:15:42;94818.45;;;12.15;51.59
5777;BME280;2914;42.668;23.346;2023-05-03T01:18:14;94852.51;;;12.04;51.74
5777;BME280;2914;42.668;23.346;2023-05-03T01:20:47;94827.95;;;11.98;52.18
5777;BME280;2914;42.668;23.346;2023-05-03T01:23:24;94823.92;;;12.03;51.88
5777;BME280;2914;42.668;23.346;2023-05-03T01:25:52;94808.89;;;12.04;51.85
5777;BME280;2914;42.668;23.346;2023-05-03T01:28:21;94819.02;;;12.09;51.61
5777;BME280;2914;42.668;23.346;2023-05-03T01:30:52;94822.11;;;12.04;51.62
5777;BME280;2914;42.668;23.346;2023-05-03T01:33:28;94828.47;;;12.11;51.62
5777;BME280;2914;42.668;23.346;2023-05-03T01:35:58;94816.06;;;12.21;51.49
5777;BME280;2914;42.668;23.346;2023-05-03T01:38:29;94816.84;;;12.32;51.24
5777;BME280;2914;42.668;23.346;2023-05-03T01:41:01;94828.49;;;12.39;51.05
5777;BME280;2914;42.668;23.346;2023-05-03T01:43:30;94815.41;;;12.37;50.86
5777;BME280;2914;42.668;23.346;2023-05-03T01:46:01;94807.16;;;12.36;51.09
5777;BME280;2914;42.668;23.346;2023-05-03T01:48:30;94806.95;;;12.20;51.07
5777;BME280;2914;42.668;23.346;2023-05-03T01:50:59;94801.94;;;12.17;51.17
5777;BME280;2914;42.668;23.346;2023-05-03T01:53:28;94808.84;;;12.14;51.31
5777;BME280;2914;42.668;23.346;2023-05-03T01:55:57;94804.16;;;12.08;51.54
5777;BME280;2914;42.668;23.346;2023-05-03T01:58:26;94806.80;;;11.98;51.79
5777;BME280;2914;42.668;23.346;2023-05-03T02:00:56;94799.73;;;11.88;52.28
5777;BME280;2914;42.668;23.346;2023-05-03T02:03:25;94799.88;;;11.77;52.86
5777;BME280;2914;42.668;23.346;2023-05-03T02:05:54;94775.16;;;11.68;53.24
5777;BME280;2914;42.668;23.346;2023-05-03T02:08:23;94779.00;;;11.60;53.81
5777;BME280;2914;42.668;23.346;2023-05-03T02:10:52;94772.98;;;11.54;53.96
5777;BME280;2914;42.668;23.346;2023-05-03T02:13:21;94778.80;;;11.58;54.09
5777;BME280;2914;42.668;23.346;2023-05-03T02:15:50;94770.69;;;11.45;54.58
5777;BME280;2914;42.668;23.346;2023-05-03T02:18:19;94748.80;;;11.49;54.71
5777;BME280;2914;42.668;23.346;2023-05-03T02:20:48;94759.45;;;11.43;54.98
5777;BME280;2914;42.668;23.346;2023-05-03T02:23:17;94776.39;;;11.50;54.80
5777;BME280;2914;42.668;23.346;2023-05-03T02:25:46;94756.58;;;11.50;54.77
5777;BME280;2914;42.668;23.346;2023-05-03T02:28:16;94757.57;;;11.40;55.20
5777;BME280;2914;42.668;23.346;2023-05-03T02:30:45;94767.63;;;11.40;55.48
5777;BME280;2914;42.668;23.346;2023-05-03T02:33:14;94763.06;;;11.42;55.31
5777;BME280;2914;42.668;23.346;2023-05-03T02:35:43;94762.11;;;11.33;55.67
5777;BME280;2914;42.668;23.346;2023-05-03T02:38:12;94770.56;;;11.37;55.62
5777;BME280;2914;42.668;23.346;2023-05-03T02:40:41;94759.66;;;11.46;55.44
5777;BME280;2914;42.668;23.346;2023-05-03T02:43:10;94764.75;;;11.33;55.62
5777;BME280;2914;42.668;23.346;2023-05-03T02:45:39;94768.89;;;11.36;55.47
5777;BME280;2914;42.668;23.346;2023-05-03T02:48:08;94772.47;;;11.31;55.88
5777;BME280;2914;42.668;23.346;2023-05-03T02:50:38;94769.33;;;11.31;55.83
5777;BME280;2914;42.668;23.346;2023-05-03T02:53:07;94766.98;;;11.28;55.88
5777;BME280;2914;42.668;23.346;2023-05-03T02:55:36;94761.70;;;11.28;55.86
5777;BME280;2914;42.668;23.346;2023-05-03T02:58:05;94760.09;;;11.31;55.82
5777;BME280;2914;42.668;23.346;2023-05-03T03:00:34;94751.55;;;11.33;55.86
5777;BME280;2914;42.668;23.346;2023-05-03T03:03:03;94741.16;;;11.36;55.93
5777;BME280;2914;42.668;23.346;2023-05-03T03:05:32;94754.02;;;11.45;55.54
5777;BME280;2914;42.668;23.346;2023-05-03T03:08:01;94769.81;;;11.41;55.86
5777;BME280;2914;42.668;23.346;2023-05-03T03:10:30;94778.66;;;11.59;55.46
5777;BME280;2914;42.668;23.346;2023-05-03T03:13:00;94770.23;;;11.69;55.08
5777;BME280;2914;42.668;23.346;2023-05-03T03:15:29;94767.84;;;11.76;54.72
5777;BME280;2914;42.668;23.346;2023-05-03T03:17:58;94777.27;;;11.88;54.49
5777;BME280;2914;42.668;23.346;2023-05-03T03:20:27;94774.83;;;11.91;54.28
5777;BME280;2914;42.668;23.346;2023-05-03T03:22:56;94781.32;;;11.83;54.51
5777;BME280;2914;42.668;23.346;2023-05-03T03:25:25;94778.58;;;11.98;54.31
5777;BME280;2914;42.668;23.346;2023-05-03T03:27:54;94780.17;;;11.85;54.64
5777;BME280;2914;42.668;23.346;2023-05-03T03:30:24;94792.92;;;11.62;55.26
5777;BME280;2914;42.668;23.346;2023-05-03T03:32:53;94792.61;;;11.42;56.07
5777;BME280;2914;42.668;23.346;2023-05-03T03:37:59;94800.12;;;11.27;57.03
5777;BME280;2914;42.668;23.346;2023-05-03T03:40:29;94806.86;;;11.35;56.49
5777;BME280;2914;42.668;23.346;2023-05-03T03:42:58;94802.53;;;11.44;56.41
5777;BME280;2914;42.668;23.346;2023-05-03T03:45:27;94808.59;;;11.50;56.39
5777;BME280;2914;42.668;23.346;2023-05-03T03:47:56;94808.34;;;11.67;56.01
5777;BME280;2914;42.668;23.346;2023-05-03T03:50:25;94811.54;;;11.70;55.80
5777;BME280;2914;42.668;23.346;2023-05-03T03:55:32;94828.95;;;11.77;55.34
5777;BME280;2914;42.668;23.346;2023-05-03T03:58:01;94826.66;;;11.45;56.16
5777;BME280;2914;42.668;23.346;2023-05-03T04:00:30;94833.73;;;11.44;55.90
5777;BME280;2914;42.668;23.346;2023-05-03T04:02:59;94837.09;;;11.27;56.54
5777;BME280;2914;42.668;23.346;2023-05-03T04:05:28;94839.73;;;11.27;56.62
5777;BME280;2914;42.668;23.346;2023-05-03T04:07:58;94835.56;;;11.34;56.43
5777;BME280;2914;42.668;23.346;2023-05-03T04:10:27;94826.04;;;11.27;56.66
5777;BME280;2914;42.668;23.346;2023-05-03T04:12:56;94841.95;;;11.31;56.26
5777;BME280;2914;42.668;23.346;2023-05-03T04:15:25;94842.98;;;11.34;56.58
5777;BME280;2914;42.668;23.346;2023-05-03T04:17:54;94845.77;;;11.33;56.55
5777;BME280;2914;42.668;23.346;2023-05-03T04:20:24;94851.34;;;11.20;57.23
5777;BME280;2914;42.668;23.346;2023-05-03T04:22:53;94852.91;;;11.07;57.71
5777;BME280;2914;42.668;23.346;2023-05-03T04:25:22;94854.05;;;11.14;58.29
5777;BME280;2914;42.668;23.346;2023-05-03T04:27:52;94869.25;;;11.26;57.20
5777;BME280;2914;42.668;23.346;2023-05-03T04:30:22;94860.02;;;11.16;57.39
5777;BME280;2914;42.668;23.346;2023-05-03T04:32:52;94866.25;;;11.06;58.11
5777;BME280;2914;42.668;23.346;2023-05-03T04:35:22;94868.15;;;11.19;58.10
5777;BME280;2914;42.668;23.346;2023-05-03T04:37:50;94870.58;;;11.16;58.94
5777;BME280;2914;42.668;23.346;2023-05-03T04:40:20;94858.37;;;11.25;59.25
5777;BME280;2914;42.668;23.346;2023-05-03T04:42:49;94847.45;;;11.24;59.18
5777;BME280;2914;42.668;23.346;2023-05-03T04:45:31;94880.38;;;11.20;59.58
5777;BME280;2914;42.668;23.346;2023-05-03T04:50:40;94887.59;;;11.08;60.69
5777;BME280;2914;42.668;23.346;2023-05-03T04:53:09;94891.84;;;11.15;60.42
5777;BME280;2914;42.668;23.346;2023-05-03T04:55:38;94892.80;;;11.14;60.45
5777;BME280;2914;42.668;23.346;2023-05-03T04:58:07;94902.02;;;10.94;60.17
5777;BME280;2914;42.668;23.346;2023-05-03T05:00:36;94903.97;;;10.92;60.95
5777;BME280;2914;42.668;23.346;2023-05-03T05:03:05;94901.09;;;10.80;61.59
5777;BME280;2914;42.668;23.346;2023-05-03T05:05:34;94925.80;;;10.79;62.57
5777;BME280;2914;42.668;23.346;2023-05-03T05:08:03;94907.39;;;10.73;63.66
5777;BME280;2914;42.668;23.346;2023-05-03T05:10:33;94944.98;;;10.65;64.59
5777;BME280;2914;42.668;23.346;2023-05-03T05:13:03;94929.70;;;10.59;66.63
5777;BME280;2914;42.668;23.346;2023-05-03T05:15:32;94934.95;;;10.44;68.03
5777;BME280;2914;42.668;23.346;2023-05-03T05:18:01;94933.03;;;10.61;68.97
5777;BME280;2914;42.668;23.346;2023-05-03T05:20:30;94933.95;;;10.35;69.44
5777;BME280;2914;42.668;23.346;2023-05-03T05:22:58;94933.64;;;10.44;68.21
5777;BME280;2914;42.668;23.346;2023-05-03T05:25:28;94927.91;;;10.44;67.88
5777;BME280;2914;42.668;23.346;2023-05-03T05:27:57;94925.41;;;10.37;68.04
5777;BME280;2914;42.668;23.346;2023-05-03T05:30:26;94936.64;;;10.45;68.10
5777;BME280;2914;42.668;23.346;2023-05-03T05:32:55;94924.58;;;10.52;67.72
5777;BME280;2914;42.668;23.346;2023-05-03T05:38:08;94930.59;;;10.79;67.00
5777;BME280;2914;42.668;23.346;2023-05-03T05:40:37;94942.00;;;10.80;66.31
5777;BME280;2914;42.668;23.346;2023-05-03T05:43:06;94932.56;;;10.87;65.84
5777;BME280;2914;42.668;23.346;2023-05-03T05:45:36;94942.95;;;11.04;65.60
5777;BME280;2914;42.668;23.346;2023-05-03T05:48:06;94932.03;;;11.03;65.99
5777;BME280;2914;42.668;23.346;2023-05-03T05:50:35;94932.41;;;11.14;65.12
5777;BME280;2914;42.668;23.346;2023-05-03T05:53:04;94936.64;;;11.11;64.87
5777;BME280;2914;42.668;23.346;2023-05-03T05:55:35;94934.20;;;11.03;64.88
5777;BME280;2914;42.668;23.346;2023-05-03T05:58:04;94937.08;;;11.16;64.48
5777;BME280;2914;42.668;23.346;2023-05-03T06:00:33;94941.97;;;10.95;65.41
5777;BME280;2914;42.668;23.346;2023-05-03T06:03:03;94928.39;;;10.84;66.33
5777;BME280;2914;42.668;23.346;2023-05-03T06:05:32;94930.36;;;10.92;66.52
5777;BME280;2914;42.668;23.346;2023-05-03T06:08:01;94935.64;;;10.92;66.91
5777;BME280;2914;42.668;23.346;2023-05-03T06:10:30;94941.91;;;10.76;67.12
5777;BME280;2914;42.668;23.346;2023-05-03T06:13:00;94928.55;;;10.67;67.34
5777;BME280;2914;42.668;23.346;2023-05-03T06:15:30;94921.52;;;10.62;68.14
5777;BME280;2914;42.668;23.346;2023-05-03T06:17:59;94919.25;;;10.58;69.41
5777;BME280;2914;42.668;23.346;2023-05-03T06:20:28;94937.48;;;10.61;68.14
5777;BME280;2914;42.668;23.346;2023-05-03T06:22:57;94919.51;;;10.70;68.46
5777;BME280;2914;42.668;23.346;2023-05-03T06:25:26;94917.53;;;10.78;68.79
5777;BME280;2914;42.668;23.346;2023-05-03T06:27:55;94914.09;;;10.87;67.27
5777;BME280;2914;42.668;23.346;2023-05-03T06:30:24;94908.53;;;10.90;66.91
5777;BME280;2914;42.668;23.346;2023-05-03T06:32:55;94919.61;;;10.99;66.97
5777;BME280;2914;42.668;23.346;2023-05-03T06:35:24;94921.05;;;10.88;67.57
5777;BME280;2914;42.668;23.346;2023-05-03T06:37:53;94916.17;;;10.93;68.05
5777;BME280;2914;42.668;23.346;2023-05-03T06:40:22;94917.11;;;10.98;68.03
5777;BME280;2914;42.668;23.346;2023-05-03T06:42:53;94905.09;;;10.99;68.59
5777;BME280;2914;42.668;23.346;2023-05-03T06:45:22;94904.52;;;10.96;68.72
5777;BME280;2914;42.668;23.346;2023-05-03T06:47:51;94903.13;;;11.01;68.53
5777;BME280;2914;42.668;23.346;2023-05-03T06:50:20;94917.87;;;11.04;68.22
5777;BME280;2914;42.668;23.346;2023-05-03T06:52:51;94900.98;;;11.01;68.06
5777;BME280;2914;42.668;23.346;2023-05-03T06:55:20;94888.16;;;11.12;67.17
5777;BME280;2914;42.668;23.346;2023-05-03T06:57:49;94894.39;;;11.01;67.54
5777;BME280;2914;42.668;23.346;2023-05-03T07:00:20;94881.98;;;11.17;67.72
5777;BME280;2914;42.668;23.346;2023-05-03T07:02:49;94880.66;;;11.17;67.45
5777;BME280;2914;42.668;23.346;2023-05-03T07:05:18;94884.84;;;11.29;67.03
5777;BME280;2914;42.668;23.346;2023-05-03T07:07:47;94881.14;;;11.36;66.74
5777;BME280;2914;42.668;23.346;2023-05-03T07:10:17;94880.23;;;11.41;66.96
5777;BME280;2914;42.668;23.346;2023-05-03T07:12:46;94873.10;;;11.37;67.30
5777;BME280;2914;42.668;23.346;2023-05-03T07:15:15;94882.38;;;11.22;67.93
5777;BME280;2914;42.668;23.346;2023-05-03T07:17:44;94897.33;;;11.17;68.36
5777;BME280;2914;42.668;23.346;2023-05-03T07:20:13;94891.70;;;11.26;68.48
5777;BME280;2914;42.668;23.346;2023-05-03T07:22:42;94898.73;;;11.41;67.95
5777;BME280;2914;42.668;23.346;2023-05-03T07:25:12;94885.38;;;11.33;68.59
5777;BME280;2914;42.668;23.346;2023-05-03T07:27:42;94892.55;;;11.27;68.92
5777;BME280;2914;42.668;23.346;2023-05-03T07:30:13;94886.48;;;11.20;69.66
5777;BME280;2914;42.668;23.346;2023-05-03T07:32:42;94883.98;;;11.19;69.99
5777;BME280;2914;42.668;23.346;2023-05-03T07:35:11;94888.59;;;11.36;69.95
5777;BME280;2914;42.668;23.346;2023-05-03T07:37:40;94891.63;;;11.32;70.42
5777;BME280;2914;42.668;23.346;2023-05-03T07:40:11;94879.20;;;11.28;70.59
5777;BME280;2914;42.668;23.346;2023-05-03T07:42:40;94882.13;;;11.35;70.15
5777;BME280;2914;42.668;23.346;2023-05-03T07:45:10;94877.59;;;11.41;70.32
5777;BME280;2914;42.668;23.346;2023-05-03T07:47:39;94881.42;;;11.33;70.62
5777;BME280;2914;42.668;23.346;2023-05-03T07:50:09;94881.34;;;11.38;70.83
5777;BME280;2914;42.668;23.346;2023-05-03T07:52:39;94881.42;;;11.33;71.00
5777;BME280;2914;42.668;23.346;2023-05-03T07:55:10;94887.20;;;11.23;72.14
5777;BME280;2914;42.668;23.346;2023-05-03T07:57:39;94882.74;;;11.23;72.41
5777;BME280;2914;42.668;23.346;2023-05-03T08:00:11;94891.38;;;11.25;72.46
5777;BME280;2914;42.668;23.346;2023-05-03T08:02:40;94891.16;;;11.32;72.72
5777;BME280;2914;42.668;23.346;2023-05-03T08:05:11;94890.88;;;11.35;72.64
5777;BME280;2914;42.668;23.346;2023-05-03T08:07:42;94904.80;;;11.37;72.92
5777;BME280;2914;42.668;23.346;2023-05-03T08:10:12;94904.91;;;11.36;73.40
5777;BME280;2914;42.668;23.346;2023-05-03T08:12:41;94887.88;;;11.25;74.26
5777;BME280;2914;42.668;23.346;2023-05-03T08:15:10;94888.66;;;11.21;74.48
5777;BME280;2914;42.668;23.346;2023-05-03T08:17:43;94890.73;;;11.37;74.13
5777;BME280;2914;42.668;23.346;2023-05-03T08:20:13;94895.75;;;11.60;73.29
5777;BME280;2914;42.668;23.346;2023-05-03T08:22:43;94893.70;;;11.77;72.72
5777;BME280;2914;42.668;23.346;2023-05-03T08:25:12;94885.64;;;11.98;72.34
5777;BME280;2914;42.668;23.346;2023-05-03T08:27:43;94881.91;;;12.15;71.76
5777;BME280;2914;42.668;23.346;2023-05-03T08:30:13;94892.42;;;12.34;70.97
5777;BME280;2914;42.668;23.346;2023-05-03T08:32:42;94891.91;;;12.45;70.31
5777;BME280;2914;42.668;23.346;2023-05-03T08:35:11;94889.64;;;12.50;70.17
5777;BME280;2914;42.668;23.346;2023-05-03T08:37:42;94889.02;;;12.80;69.79
5777;BME280;2914;42.668;23.346;2023-05-03T08:40:12;94894.53;;;13.14;68.60
5777;BME280;2914;42.668;23.346;2023-05-03T08:42:44;94905.80;;;13.30;67.21
5777;BME280;2914;42.668;23.346;2023-05-03T08:45:14;94896.21;;;13.47;67.18
5777;BME280;2914;42.668;23.346;2023-05-03T08:47:43;94882.86;;;13.75;65.86
5777;BME280;2914;42.668;23.346;2023-05-03T08:50:14;94888.59;;;13.66;66.22
5777;BME280;2914;42.668;23.346;2023-05-03T08:52:43;94884.81;;;13.91;65.95
5777;BME280;2914;42.668;23.346;2023-05-03T08:55:12;94886.20;;;13.99;64.71
5777;BME280;2914;42.668;23.346;2023-05-03T08:57:41;94903.34;;;14.09;64.71
5777;BME280;2914;42.668;23.346;2023-05-03T09:00:15;94894.31;;;13.98;65.02
5777;BME280;2914;42.668;23.346;2023-05-03T09:02:45;94903.00;;;13.86;65.42
5777;BME280;2914;42.668;23.346;2023-05-03T09:05:36;94899.05;;;13.68;66.12
5777;BME280;2914;42.668;23.346;2023-05-03T09:08:08;94906.28;;;13.80;65.86
5777;BME280;2914;42.668;23.346;2023-05-03T09:10:39;94901.67;;;13.86;65.72
5777;BME280;2914;42.668;23.346;2023-05-03T09:13:08;94898.19;;;13.63;67.26
5777;BME280;2914;42.668;23.346;2023-05-03T09:15:38;94889.95;;;13.70;66.83
5777;BME280;2914;42.668;23.346;2023-05-03T09:18:13;94893.23;;;13.64;67.13
5777;BME280;2914;42.668;23.346;2023-05-03T09:20:45;94884.50;;;13.72;66.61
5777;BME280;2914;42.668;23.346;2023-05-03T09:23:27;94875.19;;;13.90;66.26
5777;BME280;2914;42.668;23.346;2023-05-03T09:25:50;94874.83;;;14.07;65.77
5777;BME280;2914;42.668;23.346;2023-05-03T09:28:20;94864.31;;;14.23;65.84
5777;BME280;2914;42.668;23.346;2023-05-03T09:30:52;94866.06;;;14.15;66.12
5777;BME280;2914;42.668;23.346;2023-05-03T09:33:28;94872.56;;;14.20;66.48
5777;BME280;2914;42.668;23.346;2023-05-03T09:35:58;94862.02;;;14.33;66.12
5777;BME280;2914;42.668;23.346;2023-05-03T09:38:28;94857.42;;;14.39;65.64
5777;BME280;2914;42.668;23.346;2023-05-03T09:40:57;94849.87;;;14.52;65.79
5777;BME280;2914;42.668;23.346;2023-05-03T09:43:27;94838.03;;;14.73;64.77
5777;BME280;2914;42.668;23.346;2023-05-03T09:46:08;94837.19;;;14.72;63.95
5777;BME280;2914;42.668;23.346;2023-05-03T09:48:38;94847.64;;;14.74;64.47
5777;BME280;2914;42.668;23.346;2023-05-03T09:51:09;94843.88;;;14.89;63.72
5777;BME280;2914;42.668;23.346;2023-05-03T09:53:40;94841.18;;;14.76;63.91
5777;BME280;2914;42.668;23.346;2023-05-03T09:56:10;94839.72;;;14.86;64.07
5777;BME280;2914;42.668;23.346;2023-05-03T09:58:40;94832.65;;;15.07;63.36
5777;BME280;2914;42.668;23.346;2023-05-03T10:01:10;94824.88;;;15.26;62.28
5777;BME280;2914;42.668;23.346;2023-05-03T10:03:41;94839.33;;;15.32;62.22
5777;BME280;2914;42.668;23.346;2023-05-03T10:06:20;94830.52;;;15.48;61.39
5777;BME280;2914;42.668;23.346;2023-05-03T10:11:35;94820.05;;;15.38;62.51
5777;BME280;2914;42.668;23.346;2023-05-03T10:14:05;94820.23;;;15.45;62.27
5777;BME280;2914;42.668;23.346;2023-05-03T10:16:36;94822.72;;;15.47;63.17
5777;BME280;2914;42.668;23.346;2023-05-03T10:19:10;94823.73;;;15.58;62.64
5777;BME280;2914;42.668;23.346;2023-05-03T10:21:50;94823.39;;;15.73;61.63
5777;BME280;2914;42.668;23.346;2023-05-03T10:24:17;94809.41;;;15.75;62.27
5777;BME280;2914;42.668;23.346;2023-05-03T10:26:48;94801.13;;;15.74;61.83
5777;BME280;2914;42.668;23.346;2023-05-03T10:29:45;94803.13;;;15.56;62.66
5777;BME280;2914;42.668;23.346;2023-05-03T10:32:32;94790.16;;;15.61;62.89
5777;BME280;2914;42.668;23.346;2023-05-03T10:35:03;94786.82;;;15.67;63.21
5777;BME280;2914;42.668;23.346;2023-05-03T10:37:34;94789.16;;;15.78;62.80
5777;BME280;2914;42.668;23.346;2023-05-03T10:40:10;94784.50;;;15.60;62.80
5777;BME280;2914;42.668;23.346;2023-05-03T10:42:43;94781.84;;;15.64;63.50
5777;BME280;2914;42.668;23.346;2023-05-03T10:45:23;94788.50;;;15.85;62.61
5777;BME280;2914;42.668;23.346;2023-05-03T10:48:19;94781.33;;;15.89;61.69
5777;BME280;2914;42.668;23.346;2023-05-03T10:50:49;94779.36;;;15.83;61.80
5777;BME280;2914;42.668;23.346;2023-05-03T10:56:24;94788.98;;;16.01;61.82
5777;BME280;2914;42.668;23.346;2023-05-03T10:58:53;94785.48;;;15.96;62.17
5777;BME280;2914;42.668;23.346;2023-05-03T11:01:26;94785.80;;;16.01;62.47
5777;BME280;2914;42.668;23.346;2023-05-03T11:03:57;94794.92;;;16.11;62.33
5777;BME280;2914;42.668;23.346;2023-05-03T11:06:32;94790.59;;;16.10;62.52
5777;BME280;2914;42.668;23.346;2023-05-03T11:09:03;94784.61;;;16.16;62.47
5777;BME280;2914;42.668;23.346;2023-05-03T11:11:33;94779.27;;;16.20;62.45
5777;BME280;2914;42.668;23.346;2023-05-03T11:14:03;94769.92;;;16.28;61.88
5777;BME280;2914;42.668;23.346;2023-05-03T11:16:33;94760.05;;;16.41;60.14
5777;BME280;2914;42.668;23.346;2023-05-03T11:19:03;94765.69;;;16.47;60.04
5777;BME280;2914;42.668;23.346;2023-05-03T11:21:33;94767.82;;;16.51;60.06
5777;BME280;2914;42.668;23.346;2023-05-03T11:24:03;94767.80;;;16.55;59.95
5777;BME280;2914;42.668;23.346;2023-05-03T11:26:36;94766.47;;;16.55;59.63
5777;BME280;2914;42.668;23.346;2023-05-03T11:29:05;94764.64;;;16.60;60.71
5777;BME280;2914;42.668;23.346;2023-05-03T11:31:33;94746.14;;;16.67;61.49
5777;BME280;2914;42.668;23.346;2023-05-03T11:34:03;94742.16;;;16.62;60.56
5777;BME280;2914;42.668;23.346;2023-05-03T11:36:34;94755.13;;;16.66;60.82
5777;BME280;2914;42.668;23.346;2023-05-03T11:39:03;94763.13;;;16.61;60.52
5777;BME280;2914;42.668;23.346;2023-05-03T11:41:33;94768.45;;;16.61;60.23
5777;BME280;2914;42.668;23.346;2023-05-03T11:44:04;94751.81;;;16.59;60.77
5777;BME280;2914;42.668;23.346;2023-05-03T11:46:34;94763.66;;;16.57;61.66
5777;BME280;2914;42.668;23.346;2023-05-03T11:49:04;94761.94;;;16.68;62.00
5777;BME280;2914;42.668;23.346;2023-05-03T11:51:35;94746.93;;;16.71;62.33
5777;BME280;2914;42.668;23.346;2023-05-03T11:54:04;94735.92;;;16.74;62.44
5777;BME280;2914;42.668;23.346;2023-05-03T11:56:33;94760.89;;;16.77;62.91
5777;BME280;2914;42.668;23.346;2023-05-03T11:59:02;94738.45;;;16.68;63.32
5777;BME280;2914;42.668;23.346;2023-05-03T12:01:31;94742.42;;;16.72;63.21
5777;BME280;2914;42.668;23.346;2023-05-03T12:04:02;94744.94;;;16.73;62.96
5777;BME280;2914;42.668;23.346;2023-05-03T12:06:32;94764.27;;;16.67;62.60
5777;BME280;2914;42.668;23.346;2023-05-03T12:09:03;94735.95;;;16.35;63.43
5777;BME280;2914;42.668;23.346;2023-05-03T12:11:40;94729.57;;;16.08;64.52
5777;BME280;2914;42.668;23.346;2023-05-03T12:14:09;94736.05;;;16.10;64.65
5777;BME280;2914;42.668;23.346;2023-05-03T12:16:49;94734.42;;;16.05;65.12
5777;BME280;2914;42.668;23.346;2023-05-03T12:19:25;94734.80;;;15.81;65.24
5777;BME280;2914;42.668;23.346;2023-05-03T12:21:55;94729.65;;;15.67;66.68
5777;BME280;2914;42.668;23.346;2023-05-03T12:24:24;94736.47;;;15.70;66.35
5777;BME280;2914;42.668;23.346;2023-05-03T12:26:53;94745.60;;;15.67;66.72
5777;BME280;2914;42.668;23.346;2023-05-03T12:29:22;94731.86;;;15.51;67.24
5777;BME280;2914;42.668;23.346;2023-05-03T12:31:51;94750.78;;;15.23;68.47
5777;BME280;2914;42.668;23.346;2023-05-03T12:34:20;94731.70;;;15.24;68.68
5777;BME280;2914;42.668;23.346;2023-05-03T12:36:49;94714.26;;;15.30;68.65
5777;BME280;2914;42.668;23.346;2023-05-03T12:39:18;94719.06;;;15.34;68.74
5777;BME280;2914;42.668;23.346;2023-05-03T12:41:47;94722.41;;;15.20;69.53
5777;BME280;2914;42.668;23.346;2023-05-03T12:44:16;94727.37;;;15.23;69.59
5777;BME280;2914;42.668;23.346;2023-05-03T12:46:46;94720.73;;;15.15;70.41
5777;BME280;2914;42.668;23.346;2023-05-03T12:49:16;94719.58;;;15.09;71.01
5777;BME280;2914;42.668;23.346;2023-05-03T12:51:45;94721.08;;;15.12;71.44
5777;BME280;2914;42.668;23.346;2023-05-03T12:54:14;94714.44;;;15.07;71.26
5777;BME280;2914;42.668;23.346;2023-05-03T12:56:43;94722.41;;;15.07;71.57
5777;BME280;2914;42.668;23.346;2023-05-03T12:59:12;94712.59;;;15.08;72.26
5777;BME280;2914;42.668;23.346;2023-05-03T13:01:41;94711.61;;;15.09;71.69
5777;BME280;2914;42.668;23.346;2023-05-03T13:04:10;94706.80;;;15.04;72.79
5777;BME280;2914;42.668;23.346;2023-05-03T13:06:41;94709.59;;;14.99;75.18
5777;BME280;2914;42.668;23.346;2023-05-03T13:09:11;94708.94;;;14.88;75.46
5777;BME280;2914;42.668;23.346;2023-05-03T13:11:41;94715.73;;;14.74;76.31
5777;BME280;2914;42.668;23.346;2023-05-03T13:14:10;94721.33;;;14.59;77.21
5777;BME280;2914;42.668;23.346;2023-05-03T13:16:42;94717.16;;;14.52;78.59
5777;BME280;2914;42.668;23.346;2023-05-03T13:19:12;94718.94;;;14.43;80.14
5777;BME280;2914;42.668;23.346;2023-05-03T13:24:20;94735.33;;;14.31;81.48
5777;BME280;2914;42.668;23.346;2023-05-03T13:26:49;94733.27;;;14.16;80.78
5777;BME280;2914;42.668;23.346;2023-05-03T13:29:18;94754.82;;;14.13;79.93
5777;BME280;2914;42.668;23.346;2023-05-03T13:31:48;94746.80;;;14.01;80.27
5777;BME280;2914;42.668;23.346;2023-05-03T13:34:17;94726.44;;;14.01;81.95
5777;BME280;2914;42.668;23.346;2023-05-03T13:36:46;94732.87;;;13.95;84.65
5777;BME280;2914;42.668;23.346;2023-05-03T13:39:16;94746.79;;;13.66;89.23
5777;BME280;2914;42.668;23.346;2023-05-03T13:41:45;94751.98;;;13.32;93.03
5777;BME280;2914;42.668;23.346;2023-05-03T13:44:14;94743.70;;;13.31;96.51
5777;BME280;2914;42.668;23.346;2023-05-03T13:46:44;94743.00;;;13.24;99.56